createdAt,value
2022-09-15T00:00:40.218Z,99358.00
2022-09-15T00:02:13.245Z,99357.16
2022-09-15T00:03:45.493Z,99362.28
2022-09-15T00:05:18.530Z,99352.81
2022-09-15T00:06:50.515Z,99367.63
2022-09-15T00:08:23.330Z,99366.84
2022-09-15T00:09:55.349Z,99371.31
2022-09-15T00:11:31.845Z,99373.00
2022-09-15T00:13:03.779Z,99370.50
2022-09-15T00:14:35.857Z,99372.25
2022-09-15T00:16:08.877Z,99367.88
2022-09-15T00:17:42.833Z,99365.25
2022-09-15T00:19:14.909Z,99370.25
2022-09-15T00:20:46.982Z,99359.84
2022-09-15T00:22:21.538Z,99372.94
2022-09-15T00:23:56.371Z,99361.63
2022-09-15T00:25:29.085Z,99372.84
2022-09-15T00:27:01.058Z,99372.94
2022-09-15T00:28:33.269Z,99370.13
2022-09-15T00:30:06.245Z,99370.06
2022-09-15T00:31:38.321Z,99375.47
2022-09-15T00:33:11.306Z,99374.44
2022-09-15T00:34:43.378Z,99380.69
2022-09-15T00:36:16.484Z,99375.38
2022-09-15T00:37:48.500Z,99365.00
2022-09-15T00:39:20.829Z,99368.53
2022-09-15T00:40:57.481Z,99372.75
2022-09-15T00:42:29.546Z,99367.69
2022-09-15T00:44:04.830Z,99366.69
2022-09-15T00:45:37.612Z,99359.00
2022-09-15T00:47:19.269Z,99361.78
2022-09-15T00:49:05.137Z,99359.84
2022-09-15T00:50:38.179Z,99362.72
2022-09-15T00:52:21.467Z,99360.25
2022-09-15T00:53:53.907Z,99357.19
2022-09-15T00:55:34.679Z,99359.97
2022-09-15T00:57:16.308Z,99356.75
2022-09-15T00:59:01.655Z,99356.84
2022-09-15T01:00:35.316Z,99363.94
2022-09-15T01:02:20.524Z,99368.28
2022-09-15T01:03:52.789Z,99361.38
2022-09-15T01:05:28.077Z,99359.38
2022-09-15T01:07:04.155Z,99360.06
2022-09-15T01:09:02.172Z,99351.31
2022-09-15T01:10:39.320Z,99352.97
2022-09-15T01:12:11.247Z,99362.59
2022-09-15T01:13:44.651Z,99354.81
2022-09-15T01:15:16.697Z,99364.97
2022-09-15T01:17:07.396Z,99360.75
2022-09-15T01:19:05.607Z,99361.59
2022-09-15T01:21:06.775Z,99363.94
2022-09-15T01:22:42.096Z,99363.28
2022-09-15T01:24:30.616Z,99371.03
2022-09-15T01:26:34.261Z,99369.38
2022-09-15T01:28:30.758Z,99368.59
2022-09-15T01:30:15.830Z,99380.28
2022-09-15T01:32:12.518Z,99369.16
2022-09-15T01:33:50.092Z,99366.81
2022-09-15T01:35:43.454Z,99376.41
2022-09-15T01:37:20.720Z,99373.00
2022-09-15T01:39:01.327Z,99362.56
2022-09-15T01:40:40.080Z,99362.66
2022-09-15T01:42:14.380Z,99366.19
2022-09-15T01:44:06.285Z,99366.09
2022-09-15T01:45:39.805Z,99365.34
2022-09-15T01:47:14.424Z,99371.41
2022-09-15T01:48:47.912Z,99369.81
2022-09-15T01:50:26.535Z,99370.66
2022-09-15T01:51:58.552Z,99365.72
2022-09-15T01:53:30.714Z,99366.34
2022-09-15T01:55:08.213Z,99365.16
2022-09-15T01:56:42.236Z,99368.78
2022-09-15T01:58:14.317Z,99354.94
2022-09-15T01:59:52.051Z,99363.56
2022-09-15T02:01:44.050Z,99361.03
2022-09-15T02:03:33.459Z,99361.03
2022-09-15T02:05:21.016Z,99362.03
2022-09-15T02:06:56.734Z,99357.81
2022-09-15T02:08:45.549Z,99357.97
2022-09-15T02:10:24.681Z,99358.13
2022-09-15T02:12:20.249Z,99353.81
2022-09-15T02:14:00.180Z,99353.91
2022-09-15T02:15:48.722Z,99351.50
2022-09-15T02:17:21.542Z,99355.31
2022-09-15T02:19:11.845Z,99357.81
2022-09-15T02:20:49.643Z,99371.75
2022-09-15T02:22:30.720Z,99360.28
2022-09-15T02:24:11.305Z,99365.34
2022-09-15T02:25:52.162Z,99357.44
2022-09-15T02:27:25.837Z,99354.06
2022-09-15T02:28:58.555Z,99362.72
2022-09-15T02:30:32.230Z,99368.72
2022-09-15T02:32:07.401Z,99358.38
2022-09-15T02:33:46.023Z,99362.66
2022-09-15T02:35:18.453Z,99367.91
2022-09-15T02:36:53.433Z,99361.81
2022-09-15T02:38:28.992Z,99365.28
2022-09-15T02:40:01.923Z,99356.53
2022-09-15T02:41:35.687Z,99354.56
2022-09-15T02:43:14.125Z,99351.81
2022-09-15T02:44:46.082Z,99354.34
2022-09-15T02:46:20.120Z,99343.91
2022-09-15T02:47:52.150Z,99350.22
2022-09-15T02:49:24.167Z,99356.22
2022-09-15T02:50:56.190Z,99354.44
2022-09-15T02:52:28.139Z,99350.81
2022-09-15T02:54:00.227Z,99355.97
2022-09-15T02:55:32.192Z,99353.34
2022-09-15T02:57:04.419Z,99357.75
2022-09-15T02:58:36.716Z,99358.50
2022-09-15T03:00:16.400Z,99351.50
2022-09-15T03:01:48.446Z,99348.19
2022-09-15T03:03:22.292Z,99350.03
2022-09-15T03:04:54.349Z,99351.75
2022-09-15T03:06:28.282Z,99351.75
2022-09-15T03:08:00.225Z,99351.75
2022-09-15T03:09:32.226Z,99356.09
2022-09-15T03:11:07.434Z,99344.81
2022-09-15T03:12:44.827Z,99355.97
2022-09-15T03:14:16.848Z,99355.13
2022-09-15T03:15:48.844Z,99352.50
2022-09-15T03:17:21.024Z,99351.56
2022-09-15T03:18:55.834Z,99353.28
2022-09-15T03:20:28.945Z,99350.72
2022-09-15T03:22:00.989Z,99350.03
2022-09-15T03:23:35.518Z,99344.75
2022-09-15T03:25:08.403Z,99347.09
2022-09-15T03:26:40.362Z,99348.88
2022-09-15T03:28:12.413Z,99336.72
2022-09-15T03:29:44.502Z,99341.28
2022-09-15T03:31:16.658Z,99348.19
2022-09-15T03:32:49.095Z,99350.13
2022-09-15T03:34:21.154Z,99350.34
2022-09-15T03:35:53.586Z,99351.28
2022-09-15T03:37:26.024Z,99350.66
2022-09-15T03:38:58.718Z,99346.38
2022-09-15T03:40:31.120Z,99347.28
2022-09-15T03:42:03.240Z,99346.38
2022-09-15T03:43:35.865Z,99347.16
2022-09-15T03:45:08.255Z,99350.44
2022-09-15T03:46:40.234Z,99350.22
2022-09-15T03:48:12.226Z,99352.81
2022-09-15T03:49:44.255Z,99350.88
2022-09-15T03:51:16.240Z,99355.13
2022-09-15T03:52:48.274Z,99356.81
2022-09-15T03:54:20.260Z,99361.97
2022-09-15T03:57:25.279Z,99354.94
2022-09-15T03:58:57.837Z,99354.03
2022-09-15T04:00:29.960Z,99353.03
2022-09-15T04:02:02.155Z,99346.03
2022-09-15T04:03:37.460Z,99351.09
2022-09-15T04:05:13.716Z,99344.00
2022-09-15T04:06:45.546Z,99343.66
2022-09-15T04:08:17.564Z,99340.22
2022-09-15T04:09:50.684Z,99339.97
2022-09-15T04:11:23.206Z,99336.38
2022-09-15T04:12:55.344Z,99337.03
2022-09-15T04:14:28.277Z,99336.03
2022-09-15T04:16:05.234Z,99342.88
2022-09-15T04:17:37.610Z,99344.78
2022-09-15T04:19:09.782Z,99339.81
2022-09-15T04:20:41.894Z,99345.19
2022-09-15T04:22:17.661Z,99338.44
2022-09-15T04:23:50.856Z,99342.06
2022-09-15T04:26:56.909Z,99335.81
2022-09-15T04:28:31.903Z,99339.06
2022-09-15T04:30:04.937Z,99328.75
2022-09-15T04:31:37.272Z,99330.94
2022-09-15T04:33:09.696Z,99337.63
2022-09-15T04:34:41.950Z,99327.00
2022-09-15T04:36:16.897Z,99327.34
2022-09-15T04:37:49.043Z,99330.72
2022-09-15T04:39:21.194Z,99318.41
2022-09-15T04:40:53.440Z,99332.22
2022-09-15T04:42:26.445Z,99326.88
2022-09-15T04:43:58.837Z,99322.38
2022-09-15T04:45:31.301Z,99322.16
2022-09-15T04:47:03.647Z,99323.69
2022-09-15T04:48:36.022Z,99319.84
2022-09-15T04:50:08.355Z,99331.84
2022-09-15T04:51:40.790Z,99329.91
2022-09-15T04:53:13.199Z,99328.81
2022-09-15T04:54:45.891Z,99326.75
2022-09-15T04:56:22.183Z,99322.13
2022-09-15T04:57:55.705Z,99321.94
2022-09-15T05:01:14.107Z,99317.88
2022-09-15T05:02:46.855Z,99320.59
2022-09-15T05:04:19.122Z,99322.28
2022-09-15T05:05:51.349Z,99322.84
2022-09-15T05:07:23.580Z,99327.84
2022-09-15T05:08:57.813Z,99318.88
2022-09-15T05:10:30.177Z,99322.25
2022-09-15T05:12:02.546Z,99317.56
2022-09-15T05:13:35.593Z,99310.19
2022-09-15T05:15:08.723Z,99308.06
2022-09-15T05:16:41.171Z,99314.63
2022-09-15T05:18:13.603Z,99306.44
2022-09-15T05:19:46.803Z,99302.34
2022-09-15T05:21:21.253Z,99304.38
2022-09-15T05:22:53.636Z,99303.94
2022-09-15T05:24:25.963Z,99300.84
2022-09-15T05:25:59.731Z,99308.25
2022-09-15T05:27:35.842Z,99305.16
2022-09-15T05:29:08.224Z,99310.88
2022-09-15T05:30:44.227Z,99305.31
2022-09-15T05:32:16.613Z,99303.19
2022-09-15T05:33:50.034Z,99298.38
2022-09-15T05:35:24.016Z,99299.78
2022-09-15T05:36:56.255Z,99298.25
2022-09-15T05:38:32.516Z,99297.63
2022-09-15T05:40:09.137Z,99296.38
2022-09-15T05:41:41.772Z,99295.88
2022-09-15T05:43:14.542Z,99296.16
2022-09-15T05:44:46.984Z,99297.25
2022-09-15T05:46:20.022Z,99293.50
2022-09-15T05:47:52.445Z,99290.59
2022-09-15T05:49:28.962Z,99290.22
2022-09-15T05:51:01.507Z,99294.78
2022-09-15T05:52:33.869Z,99287.06
2022-09-15T05:54:06.973Z,99281.34
2022-09-15T05:55:39.050Z,99288.09
2022-09-15T05:57:11.417Z,99280.06
2022-09-15T05:58:45.700Z,99280.78
2022-09-15T06:00:19.492Z,99273.03
2022-09-15T06:01:51.919Z,99271.28
2022-09-15T06:05:10.785Z,99255.94
2022-09-15T06:06:43.206Z,99272.25
2022-09-15T06:08:15.415Z,99273.41
2022-09-15T06:09:47.396Z,99269.13
2022-09-15T06:11:21.036Z,99269.03
2022-09-15T06:12:53.916Z,99272.78
2022-09-15T06:14:26.090Z,99273.97
2022-09-15T06:16:03.227Z,99278.91
2022-09-15T06:17:35.759Z,99264.16
2022-09-15T06:19:08.027Z,99271.16
2022-09-15T06:20:40.721Z,99257.94
2022-09-15T06:22:13.085Z,99261.31
2022-09-15T06:23:50.062Z,99266.56
2022-09-15T06:25:23.358Z,99259.69
2022-09-15T06:26:55.664Z,99256.22
2022-09-15T06:28:27.946Z,99251.00
2022-09-15T06:30:00.372Z,99249.19
2022-09-15T06:31:34.104Z,99252.66
2022-09-15T06:33:06.302Z,99252.25
2022-09-15T06:34:38.436Z,99259.41
2022-09-15T06:36:15.252Z,99256.16
2022-09-15T06:37:48.144Z,99259.50
2022-09-15T06:39:20.349Z,99252.41
2022-09-15T06:40:59.807Z,99258.72
2022-09-15T06:42:32.336Z,99256.78
2022-09-15T06:44:04.760Z,99256.94
2022-09-15T06:45:37.210Z,99256.44
2022-09-15T06:47:10.915Z,99256.16
2022-09-15T06:50:18.528Z,99256.47
2022-09-15T06:51:51.408Z,99259.19
2022-09-15T06:53:23.792Z,99259.66
2022-09-15T06:54:56.084Z,99260.13
2022-09-15T06:56:28.737Z,99256.34
2022-09-15T06:58:00.973Z,99255.97
2022-09-15T06:59:33.267Z,99262.53
2022-09-15T07:01:27.609Z,99261.03
2022-09-15T07:02:59.769Z,99252.72
2022-09-15T07:04:31.883Z,99259.44
2022-09-15T07:06:05.228Z,99256.09
2022-09-15T07:07:37.238Z,99259.19
2022-09-15T07:09:11.910Z,99254.19
2022-09-15T07:10:45.474Z,99256.44
2022-09-15T07:12:18.026Z,99260.50
2022-09-15T07:13:50.326Z,99259.84
2022-09-15T07:15:25.310Z,99254.97
2022-09-15T07:16:57.689Z,99245.53
2022-09-15T07:18:31.307Z,99256.28
2022-09-15T07:20:04.267Z,99260.34
2022-09-15T07:21:36.666Z,99255.34
2022-09-15T07:23:09.224Z,99259.94
2022-09-15T07:24:41.650Z,99257.59
2022-09-15T07:26:18.636Z,99255.94
2022-09-15T07:27:50.977Z,99256.06
2022-09-15T07:29:23.189Z,99260.13
2022-09-15T07:30:55.562Z,99267.78
2022-09-15T07:32:27.586Z,99278.91
2022-09-15T07:35:32.687Z,99283.63
2022-09-15T07:37:05.295Z,99287.44
2022-09-15T07:38:42.761Z,99282.75
2022-09-15T07:40:15.740Z,99278.50
2022-09-15T07:41:48.077Z,99285.81
2022-09-15T07:43:23.448Z,99285.53
2022-09-15T07:44:55.963Z,99296.47
2022-09-15T07:46:31.470Z,99305.81
2022-09-15T07:48:04.332Z,99306.50
2022-09-15T07:49:37.234Z,99303.97
2022-09-15T07:51:09.520Z,99311.41
2022-09-15T07:52:41.789Z,99312.84
2022-09-15T07:54:16.295Z,99315.41
2022-09-15T07:55:55.320Z,99322.28
2022-09-15T07:57:27.861Z,99316.66
2022-09-15T07:59:00.206Z,99313.66
2022-09-15T08:00:32.487Z,99320.34
2022-09-15T08:02:04.795Z,99319.03
2022-09-15T08:03:39.963Z,99321.63
2022-09-15T08:05:12.192Z,99320.16
2022-09-15T08:06:44.492Z,99311.66
2022-09-15T08:08:16.472Z,99316.19
2022-09-15T08:09:48.562Z,99308.22
2022-09-15T08:11:21.727Z,99314.22
2022-09-15T08:12:54.406Z,99306.56
2022-09-15T08:14:26.459Z,99297.75
2022-09-15T08:16:05.817Z,99292.28
2022-09-15T08:17:38.035Z,99296.28
2022-09-15T08:19:10.008Z,99287.78
2022-09-15T08:20:43.446Z,99297.63
2022-09-15T08:22:15.577Z,99302.47
2022-09-15T08:23:52.589Z,99296.47
2022-09-15T08:25:25.005Z,99292.97
2022-09-15T08:26:57.518Z,99300.81
2022-09-15T08:28:31.961Z,99294.66
2022-09-15T08:30:06.022Z,99294.63
2022-09-15T08:31:38.191Z,99298.47
2022-09-15T08:33:10.478Z,99302.00
2022-09-15T08:34:42.775Z,99301.97
2022-09-15T08:36:14.872Z,99295.50
2022-09-15T08:37:47.923Z,99307.47
2022-09-15T08:39:19.770Z,99303.63
2022-09-15T08:41:01.753Z,99294.09
2022-09-15T08:42:33.929Z,99301.63
2022-09-15T08:44:23.365Z,99289.72
2022-09-15T08:46:05.228Z,99293.34
2022-09-15T08:47:46.164Z,99292.00
2022-09-15T08:49:50.960Z,99287.66
2022-09-15T08:51:38.379Z,99280.75
2022-09-15T08:53:26.996Z,99289.09
2022-09-15T08:55:04.453Z,99278.19
2022-09-15T08:56:37.452Z,99282.41
2022-09-15T08:58:12.321Z,99279.19
2022-09-15T08:59:44.954Z,99272.34
2022-09-15T09:01:36.121Z,99273.34
2022-09-15T09:03:58.662Z,99274.50
2022-09-15T09:06:14.531Z,99271.28
2022-09-15T09:08:17.506Z,99266.72
2022-09-15T09:10:07.959Z,99261.72
2022-09-15T09:12:01.948Z,99254.28
2022-09-15T09:13:46.006Z,99251.06
2022-09-15T09:15:32.385Z,99247.03
2022-09-15T09:17:32.238Z,99244.84
2022-09-15T09:19:22.943Z,99244.13
2022-09-15T09:21:11.466Z,99245.53
2022-09-15T09:22:44.708Z,99249.31
2022-09-15T09:25:50.422Z,99235.94
2022-09-15T09:27:26.786Z,99240.72
2022-09-15T09:29:00.820Z,99245.53
2022-09-15T09:30:34.033Z,99243.31
2022-09-15T09:32:27.748Z,99250.44
2022-09-15T09:34:16.468Z,99247.41
2022-09-15T09:35:53.101Z,99252.47
2022-09-15T09:37:26.085Z,99251.09
2022-09-15T09:38:59.178Z,99244.09
2022-09-15T09:40:33.174Z,99249.63
2022-09-15T09:42:06.893Z,99243.72
2022-09-15T09:43:39.208Z,99245.69
2022-09-15T09:45:18.986Z,99246.06
2022-09-15T09:46:51.436Z,99253.09
2022-09-15T09:48:25.921Z,99244.03
2022-09-15T09:49:58.645Z,99237.44
2022-09-15T09:51:32.125Z,99231.91
2022-09-15T09:53:27.360Z,99240.69
2022-09-15T09:55:03.806Z,99232.91
2022-09-15T09:56:36.037Z,99238.06
2022-09-15T09:58:19.684Z,99229.91
2022-09-15T09:59:52.266Z,99223.91
2022-09-15T10:01:26.325Z,99224.63
2022-09-15T10:02:58.713Z,99223.81
2022-09-15T10:04:31.000Z,99216.97
2022-09-15T10:06:07.118Z,99222.59
2022-09-15T10:07:44.071Z,99220.41
2022-09-15T10:09:17.928Z,99221.03
2022-09-15T10:10:52.113Z,99213.00
2022-09-15T10:12:31.957Z,99214.75
2022-09-15T10:14:03.980Z,99220.09
2022-09-15T10:15:36.926Z,99222.38
2022-09-15T10:17:11.588Z,99221.63
2022-09-15T10:18:44.011Z,99216.03
2022-09-15T10:20:33.041Z,99208.03
2022-09-15T10:22:05.545Z,99210.66
2022-09-15T10:23:37.750Z,99197.88
2022-09-15T10:25:21.506Z,99207.44
2022-09-15T10:27:07.509Z,99207.97
2022-09-15T10:28:39.975Z,99213.16
2022-09-15T10:30:15.262Z,99204.97
2022-09-15T10:31:47.826Z,99210.34
2022-09-15T10:33:27.971Z,99207.47
2022-09-15T10:35:07.939Z,99206.72
2022-09-15T10:36:40.244Z,99216.25
2022-09-15T10:38:14.018Z,99202.22
2022-09-15T10:39:52.423Z,99201.00
2022-09-15T10:41:32.322Z,99202.91
2022-09-15T10:43:48.800Z,99203.22
2022-09-15T10:45:32.882Z,99205.78
2022-09-15T10:47:28.610Z,99199.16
2022-09-15T10:49:41.343Z,99202.31
2022-09-15T10:51:22.334Z,99198.75
2022-09-15T10:53:10.903Z,99199.41
2022-09-15T10:54:55.037Z,99195.28
2022-09-15T10:56:28.949Z,99198.59
2022-09-15T10:58:16.035Z,99186.28
2022-09-15T11:00:26.236Z,99184.00
2022-09-15T11:03:49.647Z,99187.00
2022-09-15T11:05:52.722Z,99187.81
2022-09-15T11:07:40.208Z,99188.00
2022-09-15T11:09:21.242Z,99184.91
2022-09-15T11:11:02.096Z,99179.09
2022-09-15T11:12:55.968Z,99169.41
2022-09-15T11:14:49.279Z,99176.38
2022-09-15T11:16:44.369Z,99177.59
2022-09-15T11:18:50.553Z,99182.53
2022-09-15T11:20:25.957Z,99169.72
2022-09-15T11:22:25.335Z,99178.78
2022-09-15T11:24:09.441Z,99170.97
2022-09-15T11:25:45.528Z,99179.44
2022-09-15T11:27:27.772Z,99171.78
2022-09-15T11:29:24.967Z,99167.63
2022-09-15T11:31:23.813Z,99164.69
2022-09-15T11:33:18.853Z,99169.47
2022-09-15T11:35:00.648Z,99163.28
2022-09-15T11:38:29.250Z,99162.69
2022-09-15T11:40:37.179Z,99163.94
2022-09-15T11:42:14.218Z,99160.28
2022-09-15T11:44:06.801Z,99167.78
2022-09-15T11:45:46.131Z,99161.91
2022-09-15T11:47:26.502Z,99146.88
2022-09-15T11:49:05.216Z,99160.16
2022-09-15T11:50:40.963Z,99158.06
2022-09-15T11:52:28.113Z,99165.31
2022-09-15T11:54:31.016Z,99156.91
2022-09-15T11:56:24.060Z,99166.88
2022-09-15T11:58:34.058Z,99149.34
2022-09-15T12:00:12.055Z,99152.47
2022-09-15T12:01:56.268Z,99153.72
2022-09-15T12:03:53.166Z,99151.28
2022-09-15T12:05:49.724Z,99142.59
2022-09-15T12:09:01.273Z,99145.50
2022-09-15T12:10:40.794Z,99138.28
2022-09-15T12:12:16.044Z,99139.50
2022-09-15T12:13:48.502Z,99141.97
2022-09-15T12:15:27.807Z,99140.53
2022-09-15T12:17:00.100Z,99139.28
2022-09-15T12:18:40.148Z,99124.78
2022-09-15T12:20:24.391Z,99131.16
2022-09-15T12:21:59.503Z,99132.19
2022-09-15T12:23:41.844Z,99125.56
2022-09-15T12:26:02.012Z,99117.09
2022-09-15T12:27:34.525Z,99113.56
2022-09-15T12:29:26.696Z,99101.63
2022-09-15T12:31:26.831Z,99104.31
2022-09-15T12:32:59.329Z,99100.38
2022-09-15T12:34:37.446Z,99105.75
2022-09-15T12:36:34.885Z,99095.44
2022-09-15T12:38:14.306Z,99110.94
2022-09-15T12:39:47.864Z,99101.00
2022-09-15T12:41:20.455Z,99104.75
2022-09-15T12:42:52.945Z,99106.81
2022-09-15T12:44:38.218Z,99106.63
2022-09-15T12:46:18.731Z,99103.50
2022-09-15T12:48:15.301Z,99106.41
2022-09-15T12:49:49.384Z,99098.75
2022-09-15T12:51:23.705Z,99108.25
2022-09-15T12:52:59.807Z,99098.94
2022-09-15T12:54:33.511Z,99097.69
2022-09-15T12:56:08.855Z,99098.75
2022-09-15T12:57:41.157Z,99089.44
2022-09-15T12:59:15.449Z,99097.31
2022-09-15T13:01:14.267Z,99091.28
2022-09-15T13:02:46.864Z,99085.72
2022-09-15T13:04:28.423Z,99083.41
2022-09-15T13:06:22.670Z,99086.13
2022-09-15T13:07:57.712Z,99084.47
2022-09-15T13:09:30.305Z,99081.97
2022-09-15T13:11:29.456Z,99085.06
2022-09-15T13:13:28.747Z,99069.13
2022-09-15T13:15:06.333Z,99080.94
2022-09-15T13:16:41.682Z,99079.06
2022-09-15T13:18:15.419Z,99071.41
2022-09-15T13:19:49.686Z,99080.94
2022-09-15T13:21:24.499Z,99072.25
2022-09-15T13:22:59.470Z,99074.31
2022-09-15T13:25:00.769Z,99071.41
2022-09-15T13:26:34.980Z,99073.91
2022-09-15T13:29:54.102Z,99065.59
2022-09-15T13:31:35.340Z,99066.66
2022-09-15T13:33:26.213Z,99068.28
2022-09-15T13:35:36.752Z,99072.22
2022-09-15T13:39:36.339Z,99070.16
2022-09-15T13:43:05.739Z,99074.94
2022-09-15T13:45:05.952Z,99071.41
2022-09-15T13:47:10.376Z,99069.34
2022-09-15T13:49:09.825Z,99075.53
2022-09-15T13:50:46.368Z,99067.66
2022-09-15T13:52:22.846Z,99067.84
2022-09-15T13:53:56.887Z,99064.50
2022-09-15T13:55:33.516Z,99065.94
2022-09-15T13:57:05.841Z,99061.41
2022-09-15T13:59:00.972Z,99058.16
2022-09-15T14:00:55.659Z,99058.97
2022-09-15T14:02:29.217Z,99061.41
2022-09-15T14:04:14.932Z,99058.16
2022-09-15T14:05:47.468Z,99059.56
2022-09-15T14:07:23.922Z,99061.03
2022-09-15T14:08:59.069Z,99063.53
2022-09-15T14:10:35.664Z,99059.41
2022-09-15T14:12:12.983Z,99072.22
2022-09-15T14:13:49.976Z,99062.09
2022-09-15T14:24:36.043Z,99061.91
2022-09-15T14:26:14.193Z,99055.91
2022-09-15T14:27:49.091Z,99055.88
2022-09-15T14:29:24.971Z,99057.09
2022-09-15T14:30:57.305Z,99056.88
2022-09-15T14:32:32.003Z,99056.25
2022-09-15T14:34:07.280Z,99044.25
2022-09-15T14:35:42.415Z,99046.50
2022-09-15T14:37:24.465Z,99041.50
2022-09-15T14:39:12.218Z,99054.31
2022-09-15T14:40:44.572Z,99049.34
2022-09-15T14:42:23.079Z,99048.28
2022-09-15T14:43:55.371Z,99045.16
2022-09-15T14:47:34.982Z,99051.59
2022-09-15T14:49:14.979Z,99039.41
2022-09-15T14:50:58.986Z,99042.09
2022-09-15T14:52:33.985Z,99043.34
2022-09-15T14:54:07.210Z,99041.47
2022-09-15T14:55:52.643Z,99047.84
2022-09-15T14:57:30.853Z,99035.84
2022-09-15T14:59:07.223Z,99038.53
2022-09-15T15:00:56.132Z,99039.41
2022-09-15T15:02:46.113Z,99027.41
2022-09-15T15:04:33.797Z,99026.53
2022-09-15T15:06:30.009Z,99029.84
2022-09-15T15:08:05.180Z,99029.34
2022-09-15T15:09:42.318Z,99027.63
2022-09-15T15:11:16.582Z,99025.97
2022-09-15T15:12:52.454Z,99032.50
2022-09-15T15:14:24.891Z,99034.28
2022-09-15T15:15:57.541Z,99040.16
2022-09-15T15:17:56.316Z,99047.72
2022-09-15T15:19:38.173Z,99048.28
2022-09-15T15:21:44.482Z,99042.59
2022-09-15T15:23:23.849Z,99035.66
2022-09-15T15:24:56.771Z,99037.56
2022-09-15T15:26:38.570Z,99041.41
2022-09-15T15:28:32.999Z,99041.47
2022-09-15T15:30:31.231Z,99036.31
2022-09-15T15:32:11.586Z,99034.22
2022-09-15T15:33:59.773Z,99036.03
2022-09-15T15:35:33.747Z,99037.41
2022-09-15T15:37:15.023Z,99035.91
2022-09-15T15:38:51.730Z,99035.06
2022-09-15T15:40:24.115Z,99031.53
2022-09-15T15:42:05.389Z,99031.78
2022-09-15T15:43:38.116Z,99031.53
2022-09-15T15:45:10.457Z,99034.31
2022-09-15T15:46:59.106Z,99037.22
2022-09-15T15:48:37.360Z,99036.28
2022-09-15T15:50:13.916Z,99041.78
2022-09-15T15:51:47.115Z,99039.38
2022-09-15T15:53:19.414Z,99044.59
2022-09-15T15:54:51.838Z,99051.28
2022-09-15T15:56:26.077Z,99051.63
2022-09-15T15:57:59.075Z,99052.66
2022-09-15T15:59:33.894Z,99049.97
2022-09-15T16:01:06.512Z,99056.97
2022-09-15T16:02:38.810Z,99059.34
2022-09-15T16:04:12.726Z,99059.22
2022-09-15T16:05:47.045Z,99058.41
2022-09-15T16:07:21.325Z,99054.91
2022-09-15T16:08:54.064Z,99050.28
2022-09-15T16:10:30.445Z,99061.34
2022-09-15T16:12:02.887Z,99053.69
2022-09-15T16:13:35.424Z,99044.88
2022-09-15T16:15:15.232Z,99052.53
2022-09-15T16:16:47.528Z,99050.03
2022-09-15T16:18:19.923Z,99049.34
2022-09-15T16:19:52.264Z,99047.81
2022-09-15T16:21:38.858Z,99048.50
2022-09-15T16:23:15.222Z,99052.28
2022-09-15T16:24:48.055Z,99047.28
2022-09-15T16:26:23.605Z,99056.75
2022-09-15T16:27:56.016Z,99058.53
2022-09-15T16:29:36.555Z,99052.19
2022-09-15T16:31:13.834Z,99052.84
2022-09-15T16:32:46.151Z,99054.63
2022-09-15T16:34:18.615Z,99058.94
2022-09-15T16:35:55.670Z,99065.72
2022-09-15T16:37:28.008Z,99064.50
2022-09-15T16:39:00.245Z,99059.06
2022-09-15T16:40:32.373Z,99063.44
2022-09-15T16:42:05.142Z,99073.50
2022-09-15T16:43:37.460Z,99066.91
2022-09-15T16:45:19.994Z,99071.53
2022-09-15T16:46:52.559Z,99071.03
2022-09-15T16:48:25.081Z,99062.19
2022-09-15T16:49:57.324Z,99066.69
2022-09-15T16:51:31.676Z,99074.66
2022-09-15T16:53:04.846Z,99080.28
2022-09-15T16:54:37.070Z,99089.56
2022-09-15T16:56:13.005Z,99080.22
2022-09-15T16:57:45.584Z,99084.59
2022-09-15T16:59:18.418Z,99087.69
2022-09-15T17:00:53.253Z,99087.19
2022-09-15T17:02:25.792Z,99093.94
2022-09-15T17:03:58.413Z,99095.38
2022-09-15T17:05:37.638Z,99095.69
2022-09-15T17:07:09.908Z,99097.09
2022-09-15T17:08:42.516Z,99093.91
2022-09-15T17:10:15.039Z,99094.38
2022-09-15T17:11:47.405Z,99104.44
2022-09-15T17:14:57.413Z,99100.31
2022-09-15T17:16:30.928Z,99097.16
2022-09-15T17:18:03.963Z,99095.06
2022-09-15T17:19:36.183Z,99098.84
2022-09-15T17:21:11.452Z,99100.94
2022-09-15T17:22:43.855Z,99090.78
2022-09-15T17:24:17.858Z,99097.19
2022-09-15T17:25:57.710Z,99104.31
2022-09-15T17:27:30.251Z,99091.66
2022-09-15T17:29:02.293Z,99082.16
2022-09-15T17:30:36.246Z,99094.06
2022-09-15T17:32:09.494Z,99096.00
2022-09-15T17:33:42.522Z,99088.50
2022-09-15T17:35:20.905Z,99101.91
2022-09-15T17:36:53.120Z,99106.97
2022-09-15T17:38:26.114Z,99107.53
2022-09-15T17:39:59.184Z,99105.34
2022-09-15T17:41:31.423Z,99100.03
2022-09-15T17:43:03.933Z,99107.88
2022-09-15T17:44:37.760Z,99103.09
2022-09-15T17:46:10.196Z,99109.81
2022-09-15T17:47:42.487Z,99108.97
2022-09-15T17:49:14.885Z,99108.41
2022-09-15T17:50:49.104Z,99106.34
2022-09-15T17:52:21.405Z,99109.69
2022-09-15T17:53:55.295Z,99105.66
2022-09-15T17:55:34.832Z,99109.41
2022-09-15T17:57:07.085Z,99106.50
2022-09-15T17:58:40.249Z,99105.81
2022-09-15T18:00:15.670Z,99095.06
2022-09-15T18:01:48.766Z,99109.84
2022-09-15T18:03:25.455Z,99112.66
2022-09-15T18:04:57.925Z,99124.78
2022-09-15T18:06:30.211Z,99120.59
2022-09-15T18:08:05.429Z,99120.31
2022-09-15T18:09:37.683Z,99117.09
2022-09-15T18:11:11.909Z,99117.41
2022-09-15T18:12:53.614Z,99123.06
2022-09-15T18:14:28.014Z,99115.25
2022-09-15T18:16:05.581Z,99110.50
2022-09-15T18:17:37.964Z,99111.75
2022-09-15T18:19:10.759Z,99099.75
2022-09-15T18:20:43.218Z,99112.28
2022-09-15T18:22:15.589Z,99108.25
2022-09-15T18:23:47.910Z,99112.84
2022-09-15T18:25:26.027Z,99114.53
2022-09-15T18:26:58.342Z,99113.13
2022-09-15T18:28:32.687Z,99105.56
2022-09-15T18:30:05.305Z,99111.72
2022-09-15T18:31:37.293Z,99111.97
2022-09-15T18:33:20.972Z,99109.34
2022-09-15T18:34:53.089Z,99112.09
2022-09-15T18:36:25.414Z,99094.41
2022-09-15T18:37:59.152Z,99094.69
2022-09-15T18:39:31.580Z,99098.41
2022-09-15T18:41:09.066Z,99094.13
2022-09-15T18:42:45.268Z,99079.00
2022-09-15T18:44:17.870Z,99085.34
2022-09-15T18:45:50.675Z,99093.13
2022-09-15T18:47:22.938Z,99091.47
2022-09-15T18:48:55.314Z,99083.53
2022-09-15T18:50:27.992Z,99084.50
2022-09-15T18:52:02.272Z,99082.13
2022-09-15T18:53:36.846Z,99074.06
2022-09-15T18:55:13.046Z,99070.84
2022-09-15T18:56:45.494Z,99076.34
2022-09-15T18:58:19.534Z,99080.13
2022-09-15T18:59:52.031Z,99074.94
2022-09-15T19:01:27.315Z,99070.91
2022-09-15T19:03:03.325Z,99066.59
2022-09-15T19:04:40.429Z,99064.34
2022-09-15T19:06:15.472Z,99061.84
2022-09-15T19:07:47.922Z,99055.25
2022-09-15T19:09:20.227Z,99056.38
2022-09-15T19:10:59.649Z,99049.16
2022-09-15T19:14:04.912Z,99027.81
2022-09-15T19:15:37.380Z,99031.56
2022-09-15T19:17:09.702Z,99028.94
2022-09-15T19:18:42.065Z,99022.09
2022-09-15T19:20:16.165Z,99023.63
2022-09-15T19:21:48.576Z,99018.47
2022-09-15T19:23:20.886Z,99013.19
2022-09-15T19:24:53.403Z,99010.53
2022-09-15T19:26:29.213Z,99015.13
2022-09-15T19:28:01.530Z,99004.97
2022-09-15T19:29:36.105Z,99010.13
2022-09-15T19:31:09.189Z,99005.09
2022-09-15T19:32:41.528Z,98994.97
2022-09-15T19:34:13.788Z,99000.50
2022-09-15T19:35:46.551Z,99004.84
2022-09-15T19:37:21.332Z,99003.84
2022-09-15T19:38:53.807Z,98993.56